Flight Track Log - Related Links

Times and Time Zones

All times are in EDT time to prevent confusion due to time zone crossing. See the AWI3704 flight status page for this flight to view local times or setup timezone preferences in your user account.

Time Position Orientation Groundspeed Altitude Reporting Facility
EDT Latitude Longitude Course Direction KTS MPH feet Rate Location/Type
Sun 09:55:00 AM 39.8667 -75.2833 37° Northeast 169 194 800  Level Philadelphia TRACON
Sun 09:56:07 AM 39.8167 -75.3333 218° Southwest 199 229 3,100 2,273 Climbing Philadelphia TRACON
Sun 09:57:00 AM 39.8167 -74.9130 90° East  Level FlightAware Approximate
Sun 09:57:12 AM 39.7667 -75.3167 166° South 233 268 5,800  Level Philadelphia TRACON
Sun 09:58:00 AM 39.8039 -74.8026 105° East  Level FlightAware Approximate
Sun 09:58:07 AM 39.7667 -75.2333 90° East 278 320 7,400  Level Philadelphia TRACON
Sun 09:59:00 AM 39.7873 -74.6961 37° Northeast  Level FlightAware Approximate
Sun 10:00:00 AM 39.8558 -74.6276 37° Northeast  Level FlightAware Approximate
Sun 10:00:16 AM 39.7744 -75.0169 87° East 310 357 10,600  Level New York Center
Sun 10:01:14 AM 39.7814 -74.8822 86° East 331 381 12,100 1,059 Climbing New York Center
Sun 10:02:15 AM 39.7989 -74.7347 81° East 370 426 12,700 1,770 Climbing New York Center
Sun 10:03:16 AM 39.8708 -74.6414 45° Northeast 358 412 15,700 2,542 Climbing New York Center
Sun 10:04:13 AM 39.9483 -74.5644 37° Northeast 345 397 17,700 2,085 Climbing New York Center
Sun 10:05:14 AM 40.0236 -74.4925 36° Northeast 330 380 19,800 1,475 Climbing New York Center
Sun 10:06:15 AM 40.0989 -74.4153 38° Northeast 330 380 20,700 934 Climbing New York Center
Sun 10:07:16 AM 40.1742 -74.3431 36° Northeast 330 380 21,700 1,008 Climbing New York Center
Sun 10:08:14 AM 40.2517 -74.2628 38° Northeast 335 386 22,700 807 Climbing New York Center
Sun 10:09:15 AM 40.3369 -74.1936 32° Northeast 346 398 23,300 645 Climbing New York Center
Sun 10:10:15 AM 40.4264 -74.1244 30° Northeast 361 415 24,000 356 Climbing New York Center
Sun 10:11:13 AM 40.5200 -74.0608 27° Northeast 367 422 24,000  Level New York Center
Sun 10:13:06 AM 40.6939 -73.9400 28° Northeast 410 472 24,000  Level Boston Center
Sun 10:14:07 AM 40.7908 -73.8600 32° Northeast 415 478 24,000  Level Boston Center
Sun 10:15:06 AM 40.8819 -73.7522 42° Northeast 422 486 24,000 -50 Level Boston Center
Sun 10:16:06 AM 40.9728 -73.6386 43° Northeast 432 497 23,900 -347 Descending Boston Center
Sun 10:17:07 AM 41.0675 -73.5358 39° Northeast 432 497 23,300 -800 Descending Boston Center
Sun 10:18:06 AM 41.1786 -73.4606 27° Northeast 438 504 22,300 -1,008 Descending Boston Center
Sun 10:19:06 AM 41.2878 -73.3903 26° Northeast 438 504 21,300 -1,000 Descending Boston Center
Sun 10:20:06 AM 41.3967 -73.3283 23° Northeast 427 491 20,300 -1,050 Descending Boston Center
Sun 10:21:06 AM 41.5067 -73.3547 350° North 401 461 19,200 -1,050 Descending Boston Center
Sun 10:22:06 AM 41.6192 -73.3869 348° North 397 457 18,200 -1,140 Descending Boston Center
Sun 10:23:07 AM 41.7397 -73.4222 348° North 397 457 16,900 -1,339 Descending Boston Center
Sun 10:24:07 AM 41.8375 -73.4489 349° North 397 457 15,500 -1,468 Descending Boston Center
Sun 10:24:41 AM 41.9122 -73.4722 347° North 409 471 14,600 -1,424 Descending Boston Center
Sun 10:25:06 AM 41.9581 -73.4814 352° North 397 457 14,100 -1,835 Descending Boston Center
Sun 10:26:06 AM 42.0514 -73.5108 347° North 390 449 12,000 -1,465 Descending Boston Center
Sun 10:27:13 AM 42.1761 -73.5439 349° North 360 414 11,000 -500 Descending Boston Center
Sun 10:28:06 AM 42.2447 -73.5592 351° North 361 415 11,000 -425 Level Boston Center
Sun 10:29:06 AM 42.3342 -73.5747 353° North 314 361 10,200 -1,277 Descending Boston Center
Sun 10:30:27 AM 42.4425 -73.5964 352° North 284 327 8,000 -1,742 Descending Boston Center
Sun 10:31:10 AM 42.4944 -73.6031 355° North 273 314 6,600 -1,884 Descending Boston Center
Sun 10:32:28 AM 42.5922 -73.6331 347° North 274 315 4,200 -1,209 Descending Boston Center
Sun 10:33:29 AM 42.6711 -73.6486 352° North 265 305 3,800 -635 Descending Boston Center
Sun 10:34:12 AM 42.7147 -73.6636 346° North 233 268 3,100 -977 Descending Boston Center

Login

Don't have an account? Register now (free) for customized features, flight alerts, and more!